Terminal Aerodrome Forecast
Issued by NWS Cleveland, OH

Home | Current Version | Previous Version | Text Only | Print | Product List | Glossary On
Versions: 1 2 3 4 5 6 7 8 9 10 11 12 13 14 15 16 17
000
FTUS41 KCLE 210541 CCA
TAFERI
TAF COR
KERI 210541Z 2106/2206 22007KT P6SM BKN025
     FM210700 22006KT P6SM OVC015
     FM211200 19006KT 5SM -DZ BR OVC008
     FM212000 19006KT 3SM -DZ BR OVC004=

USA.gov is the U.S. government's official web portal to all federal, state and local government web resources and services.